createdAt,value
2018-11-10T00:00:04.397Z,99685.19
2018-11-10T00:04:13.571Z,99678.70
2018-11-10T00:08:22.718Z,99678.97
2018-11-10T00:12:32.546Z,99685.46
2018-11-10T00:16:41.196Z,99682.22
2018-11-10T00:20:54.794Z,99664.10
2018-11-10T00:25:02.834Z,99674.03
2018-11-10T00:29:21.197Z,99670.22
2018-11-10T00:33:29.401Z,99651.53
2018-11-10T08:53:42.275Z,99446.06
2018-11-10T08:57:56.306Z,99451.61
2018-11-10T09:02:08.958Z,99447.13
2018-11-10T09:06:18.945Z,99445.61
2018-11-10T09:10:41.187Z,99447.14
2018-11-10T09:14:53.131Z,99442.22
2018-11-10T09:19:01.861Z,99445.06
2018-11-10T09:23:21.443Z,99441.58
2018-11-10T09:49:57.258Z,99447.57
2018-11-10T09:54:14.301Z,99439.25
2018-11-10T09:59:02.020Z,99445.45
2018-11-10T10:03:14.620Z,99439.42
2018-11-10T10:07:44.622Z,99448.12
2018-11-10T10:11:55.514Z,99446.83
2018-11-10T10:16:55.079Z,99447.84
2018-11-10T10:21:28.497Z,99442.55
2018-11-10T10:44:13.718Z,99409.03
2018-11-10T10:49:15.397Z,99404.33
2018-11-10T10:53:57.536Z,99399.53
2018-11-10T10:58:51.189Z,99400.94
2018-11-10T11:08:37.838Z,99396.84
2018-11-10T11:12:54.897Z,99392.19
2018-11-10T11:17:04.013Z,99381.44
2018-11-10T11:21:13.214Z,99376.00
2018-11-10T11:25:28.013Z,99366.59
2018-11-10T11:29:36.559Z,99359.70
2018-11-10T11:34:41.244Z,99363.75
2018-11-10T11:40:05.160Z,99361.85
2018-11-10T11:50:18.526Z,99368.45
2018-11-10T11:54:32.787Z,99367.52
2018-11-10T11:58:40.360Z,99366.45
2018-11-10T12:02:51.707Z,99366.30
2018-11-10T12:07:02.522Z,99363.91
2018-11-10T12:21:14.712Z,99352.70
2018-11-10T13:46:52.572Z,99284.36
2018-11-10T13:51:03.134Z,99274.40
2018-11-10T13:55:10.220Z,99268.92
2018-11-10T13:59:17.465Z,99272.91
2018-11-10T14:03:24.622Z,99270.58
2018-11-10T14:07:32.006Z,99269.27
2018-11-10T14:11:39.270Z,99250.03
2018-11-10T14:15:46.374Z,99263.78
2018-11-10T14:19:53.758Z,99259.16
2018-11-10T14:24:01.139Z,99253.49
2018-11-10T14:28:09.640Z,99258.14
2018-11-10T14:32:17.133Z,99263.80
2018-11-10T14:36:25.752Z,99275.40
2018-11-10T14:40:33.055Z,99262.77
2018-11-10T14:44:40.369Z,99275.72
2018-11-10T14:48:47.492Z,99275.74
2018-11-10T14:52:54.942Z,99281.21
2018-11-10T14:57:02.216Z,99281.05
2018-11-10T15:01:09.678Z,99286.00
2018-11-10T15:05:17.074Z,99285.19
2018-11-10T15:09:24.220Z,99293.63
2018-11-10T15:13:42.448Z,99301.34
2018-11-10T15:17:55.166Z,99299.72
2018-11-10T15:22:05.279Z,99298.20
2018-11-10T15:26:14.307Z,99298.20
2018-11-10T15:30:23.201Z,99290.86
2018-11-10T15:34:30.514Z,99320.02
2018-11-10T15:38:37.704Z,99320.81
2018-11-10T15:42:44.907Z,99325.29
2018-11-10T15:46:52.122Z,99342.35
2018-11-10T15:50:59.623Z,99319.95
2018-11-10T15:55:07.863Z,99327.22
2018-11-10T15:59:15.129Z,99321.44
2018-11-10T16:03:22.389Z,99326.95
2018-11-10T16:07:29.430Z,99328.91
2018-11-10T16:11:36.620Z,99327.08
2018-11-10T16:15:43.717Z,99314.50
2018-11-10T16:19:51.003Z,99318.80
2018-11-10T16:23:58.362Z,99315.60
2018-11-10T16:28:06.086Z,99315.46
2018-11-10T16:32:13.413Z,99313.81
2018-11-10T16:36:20.616Z,99302.33
2018-11-10T16:40:27.770Z,99313.33
2018-11-10T16:44:35.124Z,99297.73
2018-11-10T16:48:42.573Z,99297.73
2018-11-10T16:52:49.801Z,99297.05
2018-11-10T16:56:56.970Z,99301.17
2018-11-10T17:01:04.529Z,99299.41
2018-11-10T17:05:12.204Z,99299.41
2018-11-10T17:09:19.439Z,99296.08
2018-11-10T17:13:26.933Z,99285.95
2018-11-10T17:17:34.295Z,99272.54
2018-11-10T17:21:41.467Z,99272.54
2018-11-10T17:25:48.698Z,99272.81
2018-11-10T17:29:55.950Z,99275.98
2018-11-10T17:34:03.246Z,99276.66
2018-11-10T17:38:10.797Z,99264.48
2018-11-10T17:42:18.310Z,99267.34
2018-11-10T17:46:25.420Z,99267.34
2018-11-10T17:50:32.696Z,99265.88
2018-11-10T17:54:40.000Z,99262.76
2018-11-10T17:58:47.341Z,99267.02
2018-11-10T18:02:54.638Z,99260.77
2018-11-10T18:07:01.798Z,99263.88
2018-11-10T18:11:09.134Z,99259.06
2018-11-10T18:15:16.933Z,99259.06
2018-11-10T18:19:24.244Z,99266.06
2018-11-10T18:23:31.554Z,99272.31
2018-11-10T18:27:39.489Z,99273.45
2018-11-10T18:31:46.712Z,99273.91
2018-11-10T18:35:54.141Z,99266.71
2018-11-10T18:40:01.569Z,99272.33
2018-11-10T18:44:10.372Z,99270.37
2018-11-10T18:48:17.620Z,99260.59
2018-11-10T18:52:25.092Z,99267.88
2018-11-10T18:56:35.363Z,99267.88
2018-11-10T19:00:42.642Z,99277.13
2018-11-10T19:04:49.952Z,99314.20
2018-11-10T19:08:57.226Z,99281.00
2018-11-10T19:13:04.443Z,99280.14
2018-11-10T19:17:11.553Z,99278.02
2018-11-10T19:21:18.887Z,99271.65
2018-11-10T19:25:26.174Z,99265.87
2018-11-10T19:29:36.450Z,99275.30
2018-11-10T19:33:44.422Z,99276.10
2018-11-10T19:37:52.262Z,99281.23
2018-11-10T19:41:59.793Z,99288.21
2018-11-10T19:46:07.877Z,99291.23
2018-11-10T19:50:15.682Z,99304.19
2018-11-10T19:54:23.005Z,99298.83
2018-11-10T19:58:34.528Z,99301.99
2018-11-10T20:02:39.663Z,99301.99
2018-11-10T20:06:47.203Z,99293.11
2018-11-10T20:10:54.620Z,99293.11
2018-11-10T20:15:05.279Z,99297.89
2018-11-10T20:19:13.999Z,99284.02
2018-11-10T20:23:21.471Z,99302.05
2018-11-10T20:27:28.951Z,99299.21
2018-11-10T20:31:36.214Z,99311.19
2018-11-10T20:35:43.654Z,99300.27
2018-11-10T20:39:50.929Z,99300.27
2018-11-10T20:43:58.202Z,99303.12
2018-11-10T20:48:05.439Z,99305.72
2018-11-10T20:52:12.800Z,99313.21
2018-11-10T20:56:19.923Z,99314.88
2018-11-10T21:00:27.084Z,99305.98
2018-11-10T21:04:34.386Z,99304.82
2018-11-10T21:08:41.881Z,99302.70
2018-11-10T21:12:50.344Z,99307.21
2018-11-10T21:16:57.546Z,99317.34
2018-11-10T21:21:04.782Z,99311.38
2018-11-10T21:25:14.358Z,99311.89
2018-11-10T21:29:21.912Z,99322.47
2018-11-10T21:33:29.145Z,99328.77
2018-11-10T21:37:36.915Z,99322.68
2018-11-10T21:41:44.199Z,99321.66
2018-11-10T21:45:51.500Z,99309.73
2018-11-10T21:49:58.740Z,99292.63
2018-11-10T21:54:06.021Z,99295.62
2018-11-10T21:58:13.327Z,99295.62
2018-11-10T22:02:20.615Z,99282.71
2018-11-10T22:06:27.671Z,99280.72
2018-11-10T22:10:35.024Z,99279.88
2018-11-10T22:14:42.213Z,99283.52
2018-11-10T22:18:49.473Z,99286.34
2018-11-10T22:22:56.819Z,99293.10
2018-11-10T22:27:04.075Z,99296.05
2018-11-10T22:31:11.377Z,99304.20
2018-11-10T22:35:18.844Z,99313.30
2018-11-10T22:39:26.134Z,99309.95
2018-11-10T22:43:33.317Z,99305.91
2018-11-10T22:47:41.351Z,99305.05
2018-11-10T22:51:48.335Z,99303.38
2018-11-10T22:55:55.648Z,99301.72
2018-11-10T23:00:03.009Z,99304.05
2018-11-10T23:04:11.863Z,99312.31
2018-11-10T23:08:17.514Z,99311.53
2018-11-10T23:12:24.830Z,99312.70
2018-11-10T23:16:32.024Z,99310.19
2018-11-10T23:20:39.293Z,99319.88
2018-11-10T23:24:46.607Z,99338.94
2018-11-10T23:28:53.780Z,99338.94
2018-11-10T23:33:00.996Z,99349.23
2018-11-10T23:37:08.627Z,99355.56
2018-11-10T23:41:15.802Z,99371.39
2018-11-10T23:45:22.994Z,99373.08
2018-11-10T23:49:30.368Z,99375.78
2018-11-10T23:53:37.591Z,99384.41
2018-11-10T23:57:44.851Z,99387.58
